createdAt,value
2018-02-06T00:00:27.609Z,59.97
2018-02-06T00:02:55.544Z,60.93
2018-02-06T00:05:24.246Z,63.40
2018-02-06T00:07:52.392Z,61.80
2018-02-06T00:10:21.180Z,63.67
2018-02-06T00:12:49.871Z,64.33
2018-02-06T00:15:18.705Z,65.77
2018-02-06T00:17:46.660Z,61.70
2018-02-06T00:20:14.610Z,64.67
2018-02-06T00:22:50.219Z,61.73
2018-02-06T00:25:18.289Z,64.47
2018-02-06T00:27:46.228Z,61.40
2018-02-06T00:30:14.302Z,60.70
2018-02-06T00:32:42.266Z,63.83
2018-02-06T00:35:10.233Z,61.97
2018-02-06T00:37:38.339Z,65.30
2018-02-06T00:40:06.302Z,69.40
2018-02-06T00:42:34.274Z,66.30
2018-02-06T00:45:02.380Z,59.40
2018-02-06T00:47:30.342Z,63.90
2018-02-06T00:49:58.436Z,62.83
2018-02-06T00:52:27.268Z,63.77
2018-02-06T00:54:55.353Z,60.77
2018-02-06T00:57:23.305Z,60.43
2018-02-06T00:59:51.376Z,61.97
2018-02-06T01:02:19.312Z,65.63
2018-02-06T01:04:48.023Z,69.17
2018-02-06T01:07:16.087Z,62.87
2018-02-06T01:09:44.784Z,62.53
2018-02-06T01:12:12.773Z,63.20
2018-02-06T01:14:41.018Z,63.30
2018-02-06T01:17:09.718Z,65.00
2018-02-06T01:19:37.690Z,62.43
2018-02-06T01:22:05.820Z,66.43
2018-02-06T01:24:33.769Z,64.83
2018-02-06T01:27:01.712Z,77.60
2018-02-06T01:29:29.796Z,68.27
2018-02-06T01:31:57.797Z,68.00
2018-02-06T01:34:25.735Z,66.13
2018-02-06T01:36:53.807Z,67.77
2018-02-06T01:39:21.740Z,64.17
2018-02-06T01:41:50.524Z,79.60
2018-02-06T01:44:18.626Z,66.57
2018-02-06T01:46:46.563Z,69.83
2018-02-06T01:49:15.262Z,71.27
2018-02-06T01:51:44.244Z,68.10
2018-02-06T01:54:12.187Z,69.53
2018-02-06T01:56:40.142Z,70.17
2018-02-06T01:59:08.218Z,83.70
2018-02-06T02:01:36.222Z,69.70
2018-02-06T02:04:04.168Z,72.23
2018-02-06T02:06:32.251Z,69.17
2018-02-06T02:09:00.289Z,69.43
2018-02-06T02:11:28.382Z,74.03
2018-02-06T02:13:56.546Z,72.37
2018-02-06T02:16:24.634Z,79.73
2018-02-06T02:18:52.638Z,76.83
2018-02-06T02:21:21.612Z,73.20
2018-02-06T02:23:49.640Z,78.97
2018-02-06T02:26:17.647Z,81.53
2018-02-06T02:28:45.959Z,79.93
2018-02-06T02:31:14.822Z,77.77
2018-02-06T02:33:42.836Z,76.00
2018-02-06T02:36:11.700Z,78.83
2018-02-06T02:38:39.934Z,75.83
2018-02-06T02:41:07.938Z,79.37
2018-02-06T04:39:32.156Z,54.57
2018-02-06T04:42:00.315Z,57.17
2018-02-06T04:44:28.304Z,47.17
2018-02-06T04:46:56.342Z,51.10
2018-02-06T04:49:24.625Z,44.00
2018-02-06T04:51:52.695Z,43.73
2018-02-06T04:54:20.697Z,41.13
2018-02-06T04:56:48.978Z,40.30
2018-02-06T04:59:16.984Z,39.80
2018-02-06T05:01:45.771Z,39.30
2018-02-06T05:04:14.652Z,38.70
2018-02-06T05:06:43.424Z,39.43
2018-02-06T05:09:11.420Z,35.33
2018-02-06T05:11:40.362Z,38.17
2018-02-06T05:14:08.397Z,39.03
2018-02-06T05:16:36.419Z,38.07
2018-02-06T05:19:04.554Z,37.03
2018-02-06T05:21:32.607Z,36.80
2018-02-06T05:24:01.396Z,34.63
2018-02-06T05:26:30.291Z,36.40
2018-02-06T05:28:59.019Z,36.50
2018-02-06T05:31:27.011Z,37.13
2018-02-06T05:33:55.252Z,35.93
2018-02-06T05:36:23.236Z,37.27
2018-02-06T05:38:51.282Z,38.17
2018-02-06T05:41:19.490Z,38.57
2018-02-06T05:43:47.515Z,36.67
2018-02-06T05:46:16.247Z,38.40
2018-02-06T05:48:44.378Z,34.73
2018-02-06T05:51:13.178Z,31.90
2018-02-06T05:53:42.654Z,34.97
2018-02-06T05:56:12.588Z,29.87
2018-02-06T05:58:41.289Z,27.37
2018-02-06T06:01:09.337Z,28.00
2018-02-06T06:03:38.228Z,28.93
2018-02-06T06:06:07.213Z,32.13
2018-02-06T06:08:35.208Z,30.67
2018-02-06T06:11:04.133Z,32.00
2018-02-06T06:13:32.785Z,27.73
2018-02-06T06:16:01.601Z,26.80
2018-02-06T06:18:29.732Z,28.23
2018-02-06T06:20:57.755Z,26.53
2018-02-06T06:23:26.546Z,26.27
2018-02-06T06:25:55.486Z,26.33
2018-02-06T06:28:23.513Z,28.40
2018-02-06T06:30:52.356Z,29.30
2018-02-06T06:33:20.520Z,30.47
2018-02-06T06:35:48.521Z,28.97
2018-02-06T06:38:16.547Z,24.27
2018-02-06T06:40:44.879Z,23.90
2018-02-06T06:43:13.096Z,22.47
2018-02-06T06:45:41.210Z,21.83
2018-02-06T06:48:09.550Z,29.00
2018-02-06T06:50:37.744Z,25.63
2018-02-06T06:53:06.584Z,24.97
2018-02-06T06:55:34.706Z,25.27
2018-02-06T06:58:02.758Z,27.70
2018-02-06T07:00:31.661Z,23.73
2018-02-06T07:02:59.885Z,21.93
2018-02-06T07:05:28.654Z,20.27
2018-02-06T07:07:56.698Z,18.03
2018-02-06T07:10:24.874Z,17.00
2018-02-06T07:12:52.895Z,18.20
2018-02-06T07:15:20.918Z,22.83
2018-02-06T07:17:54.826Z,21.43
2018-02-06T07:20:23.080Z,24.30
2018-02-06T07:22:51.857Z,20.07
2018-02-06T07:25:19.984Z,23.63
2018-02-06T07:27:48.014Z,25.20
2018-02-06T07:30:16.809Z,23.17
2018-02-06T07:32:45.749Z,25.27
2018-02-06T07:35:13.790Z,21.73
2018-02-06T07:37:41.798Z,25.60
2018-02-06T07:40:09.938Z,19.90
2018-02-06T07:42:37.949Z,27.67
2018-02-06T07:45:05.960Z,25.40
2018-02-06T07:47:34.865Z,25.60
2018-02-06T07:50:02.976Z,23.27
2018-02-06T07:52:31.012Z,15.03
2018-02-06T07:54:59.170Z,15.87
2018-02-06T07:57:27.953Z,15.57
2018-02-06T07:59:56.758Z,14.27
2018-02-06T08:02:25.829Z,14.60
2018-02-06T08:04:53.834Z,12.53
2018-02-06T08:07:22.590Z,13.83
2018-02-06T08:09:50.767Z,12.37
2018-02-06T08:12:18.869Z,12.97
2018-02-06T08:14:46.994Z,15.10
2018-02-06T08:17:15.171Z,15.10
2018-02-06T08:19:43.192Z,17.40
2018-02-06T08:22:11.985Z,12.20
2018-02-06T08:24:40.139Z,14.33
2018-02-06T08:27:08.900Z,13.70
2018-02-06T08:29:36.937Z,17.23
2018-02-06T08:32:05.153Z,12.53
2018-02-06T08:34:33.166Z,14.03
2018-02-06T08:37:01.186Z,14.20
2018-02-06T08:39:29.358Z,12.40
2018-02-06T08:41:57.502Z,13.73
2018-02-06T08:44:25.603Z,13.80
2018-02-06T08:46:53.795Z,13.43
2018-02-06T08:49:21.825Z,14.37
2018-02-06T08:51:49.904Z,14.30
2018-02-06T08:54:18.061Z,13.73
2018-02-06T08:56:46.069Z,11.30
2018-02-06T08:59:14.254Z,12.03
2018-02-06T09:01:42.460Z,13.10
2018-02-06T09:04:11.375Z,14.10
2018-02-06T09:06:39.383Z,13.43
2018-02-06T09:09:08.361Z,11.70
2018-02-06T09:11:36.440Z,13.87
2018-02-06T09:14:04.488Z,14.23
2018-02-06T09:16:32.637Z,11.60
2018-02-06T09:19:00.716Z,13.53
2018-02-06T09:21:29.520Z,12.57
2018-02-06T09:23:57.669Z,14.43
2018-02-06T09:26:26.457Z,14.53
2018-02-06T09:28:54.452Z,13.63
2018-02-06T09:31:22.680Z,14.23
2018-02-06T09:33:50.680Z,14.80
2018-02-06T09:36:19.465Z,14.80
2018-02-06T09:38:47.596Z,14.40
2018-02-06T09:41:15.687Z,18.80
2018-02-06T09:43:43.856Z,13.60
2018-02-06T09:46:12.022Z,16.33
2018-02-06T09:48:40.074Z,13.90
2018-02-06T09:51:08.254Z,17.93
2018-02-06T09:53:36.404Z,15.70
2018-02-06T09:56:05.137Z,16.33
2018-02-06T09:58:33.144Z,15.70
2018-02-06T10:01:02.120Z,13.40
2018-02-06T10:03:30.134Z,19.60
2018-02-06T10:05:58.926Z,14.63
2018-02-06T10:08:27.088Z,17.20
2018-02-06T10:10:56.026Z,15.23
2018-02-06T10:13:24.074Z,15.70
2018-02-06T10:15:52.213Z,15.30
2018-02-06T10:18:20.956Z,18.83
2018-02-06T10:20:48.979Z,13.83
2018-02-06T10:23:17.827Z,14.57
2018-02-06T10:25:45.827Z,13.93
2018-02-06T10:28:13.852Z,15.93
2018-02-06T10:30:41.957Z,13.97
2018-02-06T10:33:09.947Z,13.23
2018-02-06T10:35:37.993Z,15.27
2018-02-06T10:38:06.155Z,18.50
2018-02-06T10:40:34.179Z,17.03
2018-02-06T10:43:02.224Z,18.93
2018-02-06T10:45:30.397Z,17.10
2018-02-06T10:47:58.401Z,19.67
2018-02-06T10:50:27.202Z,17.80
2018-02-06T10:52:56.132Z,16.40
2018-02-06T10:55:24.137Z,16.27
2018-02-06T10:57:52.156Z,16.20
2018-02-06T11:00:20.279Z,16.03
2018-02-06T11:02:48.271Z,18.40
2018-02-06T11:05:17.086Z,15.00
2018-02-06T11:07:45.246Z,16.97
2018-02-06T11:10:14.012Z,15.10
2018-02-06T11:12:42.015Z,16.60
2018-02-06T11:15:10.150Z,16.07
2018-02-06T11:17:38.161Z,14.83
2018-02-06T11:20:06.187Z,14.80
2018-02-06T11:22:34.374Z,13.60
2018-02-06T11:25:02.416Z,14.13
2018-02-06T11:27:30.426Z,25.90
2018-02-06T11:29:59.347Z,13.57
2018-02-06T11:32:27.367Z,12.30
2018-02-06T11:34:55.359Z,13.10
2018-02-06T11:37:23.468Z,14.80
2018-02-06T11:39:51.497Z,14.70
2018-02-06T11:42:19.515Z,12.13
2018-02-06T11:44:47.655Z,13.93
2018-02-06T11:47:16.442Z,12.93
2018-02-06T11:49:44.485Z,13.30
2018-02-06T11:52:12.607Z,15.90
2018-02-06T11:54:40.627Z,12.93
2018-02-06T11:57:08.660Z,12.20
2018-02-06T11:59:36.804Z,14.17
2018-02-06T12:02:05.647Z,12.87
2018-02-06T12:04:33.681Z,11.30
2018-02-06T12:07:02.535Z,14.70
2018-02-06T12:09:30.581Z,10.73
2018-02-06T12:11:58.631Z,11.47
2018-02-06T12:14:26.822Z,11.57
2018-02-06T12:16:54.843Z,13.27
2018-02-06T12:19:22.843Z,13.33
2018-02-06T12:21:51.771Z,12.70
2018-02-06T12:24:19.769Z,12.37
2018-02-06T12:26:47.789Z,13.37
2018-02-06T12:29:15.919Z,14.03
2018-02-06T12:31:44.024Z,12.40
2018-02-06T12:34:12.784Z,12.97
2018-02-06T12:36:40.935Z,12.40
2018-02-06T12:39:08.977Z,13.33
2018-02-06T12:41:37.031Z,11.20
2018-02-06T12:44:05.929Z,13.70
2018-02-06T12:46:34.905Z,12.47
2018-02-06T12:49:03.733Z,10.97
2018-02-06T12:51:31.947Z,13.33
2018-02-06T12:53:59.977Z,12.10
2018-02-06T12:56:27.973Z,13.43
2018-02-06T12:58:56.109Z,16.20
2018-02-06T13:01:24.208Z,14.97
2018-02-06T13:03:52.215Z,13.20
2018-02-06T13:06:20.340Z,14.67
2018-02-06T13:08:48.397Z,12.83
2018-02-06T13:11:16.513Z,12.00
2018-02-06T13:13:44.637Z,12.90
2018-02-06T13:16:13.363Z,17.07
2018-02-06T13:18:41.380Z,12.23
2018-02-06T13:21:09.523Z,12.60
2018-02-06T13:23:37.547Z,15.20
2018-02-06T13:26:06.491Z,10.27
2018-02-06T13:28:34.608Z,11.67
2018-02-06T13:31:03.556Z,12.10
2018-02-06T13:33:35.447Z,13.20
2018-02-06T13:36:05.546Z,11.80
2018-02-06T13:38:34.297Z,12.60
2018-02-06T13:41:02.565Z,13.27
2018-02-06T13:43:30.899Z,14.57
2018-02-06T13:45:59.135Z,12.73
2018-02-06T13:48:30.096Z,11.97
2018-02-06T13:51:00.511Z,14.20
2018-02-06T13:53:28.724Z,13.83
2018-02-06T13:55:56.753Z,13.90
2018-02-06T13:58:24.952Z,13.90
2018-02-06T14:00:53.012Z,15.33
2018-02-06T14:03:21.084Z,15.47
2018-02-06T14:05:50.416Z,15.73
2018-02-06T14:08:21.632Z,15.17
2018-02-06T14:10:50.343Z,16.80
2018-02-06T14:13:18.398Z,16.40
2018-02-06T14:15:48.728Z,15.67
2018-02-06T14:18:17.063Z,15.93
2018-02-06T14:20:45.107Z,20.10
2018-02-06T14:23:13.188Z,18.03
2018-02-06T14:25:44.644Z,18.47
2018-02-06T14:28:17.534Z,18.67
2018-02-06T14:30:46.003Z,20.07
2018-02-06T14:33:19.769Z,20.53
2018-02-06T14:35:52.136Z,21.07
2018-02-06T14:38:21.464Z,21.10
2018-02-06T14:40:49.716Z,19.43
2018-02-06T14:43:17.850Z,21.03
2018-02-06T14:45:46.597Z,19.33
2018-02-06T14:48:16.096Z,19.70
2018-02-06T16:11:32.290Z,26.40
2018-02-06T16:14:01.049Z,26.17
2018-02-06T16:16:29.101Z,29.97
2018-02-06T16:18:57.228Z,27.27
2018-02-06T16:21:25.402Z,26.50
2018-02-06T16:23:53.440Z,25.73
2018-02-06T16:26:21.561Z,26.23
2018-02-06T16:28:49.604Z,24.33
2018-02-06T16:31:17.668Z,27.43
2018-02-06T16:33:45.828Z,28.37
2018-02-06T16:36:13.834Z,28.20
2018-02-06T16:38:41.864Z,26.00
2018-02-06T16:41:10.030Z,26.20
2018-02-06T16:43:38.032Z,27.50
2018-02-06T16:46:06.083Z,28.37
2018-02-06T16:48:34.221Z,29.00
2018-02-06T16:51:02.475Z,28.20
2018-02-06T16:53:30.624Z,27.70
2018-02-06T16:55:58.923Z,27.27
2018-02-06T16:58:27.087Z,27.10
2018-02-06T17:00:55.272Z,27.57
2018-02-06T17:03:23.493Z,26.60
2018-02-06T17:05:51.515Z,26.20
2018-02-06T17:08:19.550Z,28.97
2018-02-06T17:10:47.702Z,26.30
2018-02-06T17:13:16.612Z,26.37
2018-02-06T17:15:45.370Z,28.00
2018-02-06T17:18:13.520Z,24.00
2018-02-06T17:20:41.526Z,24.77
2018-02-06T17:23:10.264Z,27.33
2018-02-06T17:25:38.741Z,24.20
2018-02-06T17:28:06.822Z,24.47
2018-02-06T17:30:34.896Z,22.70
2018-02-06T17:33:03.028Z,24.27
2018-02-06T17:35:31.889Z,22.30
2018-02-06T17:38:00.151Z,23.33
2018-02-06T17:40:28.795Z,26.63
2018-02-06T17:43:00.082Z,20.73
2018-02-06T17:45:30.565Z,21.20
2018-02-06T17:47:58.880Z,22.13
2018-02-06T17:50:27.429Z,21.23
2018-02-06T17:52:55.910Z,23.10
2018-02-06T17:55:26.226Z,20.43
2018-02-06T17:57:54.989Z,22.93
2018-02-06T18:00:23.640Z,27.90
2018-02-06T18:02:52.052Z,23.47
2018-02-06T18:05:23.176Z,24.03
2018-02-06T18:07:51.844Z,24.20
2018-02-06T18:10:34.436Z,25.10
2018-02-06T18:13:05.564Z,27.93
2018-02-06T18:15:34.214Z,30.00
2018-02-06T18:18:02.501Z,29.30
2018-02-06T18:20:31.734Z,29.73
2018-02-06T18:23:00.997Z,31.23
2018-02-06T18:25:33.771Z,30.37
2018-02-06T18:28:03.702Z,29.10
2018-02-06T18:30:32.876Z,30.73
2018-02-06T18:33:00.946Z,29.67
2018-02-06T18:35:28.950Z,30.90
2018-02-06T18:37:57.728Z,28.93
2018-02-06T18:40:26.368Z,27.50
2018-02-06T18:42:55.210Z,29.50
2018-02-06T18:45:23.461Z,27.87
2018-02-06T18:47:51.600Z,30.23
2018-02-06T18:50:21.018Z,28.17
2018-02-06T18:52:49.198Z,28.87
2018-02-06T18:55:17.224Z,31.47
2018-02-06T18:57:45.234Z,29.90
2018-02-06T19:00:13.349Z,31.17
2018-02-06T19:02:41.380Z,36.17
2018-02-06T19:05:10.594Z,35.70
2018-02-06T19:07:38.753Z,37.67
2018-02-06T19:10:06.863Z,39.13
2018-02-06T19:12:34.912Z,42.03
2018-02-06T19:15:03.078Z,44.30
2018-02-06T19:17:31.091Z,43.80
2018-02-06T19:19:59.084Z,44.10
2018-02-06T19:22:27.196Z,42.97
2018-02-06T19:24:55.216Z,42.63
2018-02-06T19:27:23.261Z,41.53
2018-02-06T19:29:51.398Z,42.90
2018-02-06T19:32:20.224Z,42.60
2018-02-06T19:34:48.216Z,45.83
2018-02-06T19:37:16.349Z,42.97
2018-02-06T19:39:44.358Z,42.63
2018-02-06T19:42:12.348Z,42.67
2018-02-06T19:44:40.514Z,42.20
2018-02-06T19:47:08.523Z,44.07
2018-02-06T19:49:37.293Z,47.33
2018-02-06T19:52:05.562Z,47.63
2018-02-06T19:54:33.570Z,48.37
2018-02-06T19:57:02.340Z,46.53
2018-02-06T19:59:31.240Z,46.10
2018-02-06T20:02:00.076Z,47.60
2018-02-06T20:04:28.113Z,47.97
2018-02-06T20:06:57.004Z,51.53
2018-02-06T20:09:25.790Z,49.20
2018-02-06T20:11:53.864Z,50.37
2018-02-06T20:14:22.754Z,45.80
2018-02-06T20:16:51.648Z,48.80
2018-02-06T20:19:20.556Z,47.60
2018-02-06T20:21:48.724Z,47.93
2018-02-06T20:24:16.720Z,50.53
2018-02-06T20:26:44.762Z,51.10
2018-02-06T20:29:13.794Z,50.13
2018-02-06T20:31:41.869Z,50.17
2018-02-06T20:34:09.908Z,50.43
2018-02-06T20:36:38.058Z,53.00
2018-02-06T20:39:06.824Z,54.63
2018-02-06T20:41:34.953Z,52.20
2018-02-06T20:44:03.114Z,54.37
2018-02-06T20:46:31.122Z,51.47
2018-02-06T20:48:59.139Z,54.40
2018-02-06T20:51:28.064Z,55.33
2018-02-06T20:53:56.098Z,53.30
2018-02-06T20:56:24.110Z,57.97
2018-02-06T20:58:52.228Z,57.50
2018-02-06T21:01:20.341Z,55.37
2018-02-06T21:03:49.085Z,57.00
2018-02-06T21:06:18.017Z,60.43
2018-02-06T21:08:46.930Z,59.63
2018-02-06T21:11:15.088Z,59.40
2018-02-06T21:13:43.988Z,62.80
2018-02-06T21:16:12.194Z,59.03
2018-02-06T21:18:40.206Z,56.87
2018-02-06T21:21:08.456Z,58.27
2018-02-06T21:23:36.450Z,61.70
2018-02-06T21:26:04.489Z,65.17
2018-02-06T21:28:32.622Z,63.13
2018-02-06T21:31:01.357Z,64.67
2018-02-06T21:33:29.366Z,64.87
2018-02-06T21:35:58.277Z,66.43
2018-02-06T21:38:26.432Z,63.27
2018-02-06T21:40:54.604Z,66.90
2018-02-06T21:43:23.510Z,64.13
2018-02-06T21:45:52.258Z,65.87
2018-02-06T21:48:20.258Z,70.13
2018-02-06T21:50:49.152Z,69.90
2018-02-06T21:53:17.924Z,68.87
2018-02-06T21:55:45.958Z,69.23
2018-02-06T21:58:14.108Z,71.47
2018-02-06T22:00:42.876Z,73.33
2018-02-06T22:03:10.928Z,72.10
2018-02-06T22:05:39.049Z,74.53
2018-02-06T22:08:07.072Z,76.30
2018-02-06T22:10:35.082Z,75.07
2018-02-06T22:13:03.972Z,71.63
2018-02-06T22:15:32.739Z,74.30
2018-02-06T22:18:00.736Z,73.50
2018-02-06T22:20:29.631Z,72.07
2018-02-06T22:22:58.516Z,73.87
2018-02-06T22:25:27.332Z,70.53
2018-02-06T22:27:55.488Z,77.00
2018-02-06T22:30:23.489Z,77.20
2018-02-06T22:32:51.526Z,78.97
2018-02-06T22:35:20.461Z,78.07
2018-02-06T22:37:48.505Z,76.43
2018-02-06T22:40:16.542Z,77.43
2018-02-06T22:42:44.802Z,75.83
2018-02-06T22:45:12.847Z,74.23
2018-02-06T22:47:40.845Z,73.90
2018-02-06T22:50:08.972Z,74.00
2018-02-06T22:52:37.128Z,70.53
2018-02-06T22:55:05.906Z,67.67
2018-02-06T22:57:34.793Z,67.33
2018-02-06T23:00:02.833Z,69.50
2018-02-06T23:02:30.866Z,67.20
2018-02-06T23:04:59.005Z,73.90
2018-02-06T23:07:27.041Z,72.33
2018-02-06T23:09:55.220Z,72.13
2018-02-06T23:12:23.328Z,75.30
2018-02-06T23:14:51.315Z,67.83
2018-02-06T23:17:20.044Z,69.73
2018-02-06T23:19:48.190Z,69.57
2018-02-06T23:22:16.924Z,67.47
2018-02-06T23:24:45.087Z,67.43
2018-02-06T23:27:13.250Z,68.90
2018-02-06T23:29:41.285Z,66.10
2018-02-06T23:32:10.134Z,74.33
2018-02-06T23:34:38.269Z,69.87
2018-02-06T23:50:09.481Z,71.30
2018-02-06T23:52:37.479Z,67.17
2018-02-06T23:55:05.478Z,69.57
2018-02-06T23:57:33.618Z,67.90
